sensor_id;sensor_type;location;lat;lon;timestamp;pressure;altitude;pressure_sealevel;temperature;humidity
60715;BME280;46564;53.096;8.246;2022-12-07T00:04:24;101228.03;;;2.55;99.87
60715;BME280;46564;53.096;8.246;2022-12-07T00:09:26;101223.47;;;2.51;100.00
60715;BME280;46564;53.096;8.246;2022-12-07T00:14:27;101224.72;;;2.43;99.94
60715;BME280;46564;53.096;8.246;2022-12-07T00:19:28;101226.69;;;2.32;100.00
60715;BME280;46564;53.096;8.246;2022-12-07T00:24:30;101230.38;;;2.21;99.81
60715;BME280;46564;53.096;8.246;2022-12-07T00:29:31;101229.91;;;2.28;99.80
60715;BME280;46564;53.096;8.246;2022-12-07T00:34:33;101231.16;;;2.20;99.78
60715;BME280;46564;53.096;8.246;2022-12-07T00:39:34;101221.44;;;2.16;99.80
60715;BME280;46564;53.096;8.246;2022-12-07T00:44:36;101222.72;;;2.07;99.77
60715;BME280;46564;53.096;8.246;2022-12-07T00:49:38;101222.25;;;2.00;99.75
60715;BME280;46564;53.096;8.246;2022-12-07T00:54:39;101221.00;;;1.93;99.90
60715;BME280;46564;53.096;8.246;2022-12-07T00:59:41;101228.13;;;1.82;99.37
60715;BME280;46564;53.096;8.246;2022-12-07T01:04:42;101213.06;;;1.75;99.74
60715;BME280;46564;53.096;8.246;2022-12-07T01:09:44;101219.38;;;1.80;99.62
60715;BME280;46564;53.096;8.246;2022-12-07T01:14:45;101205.50;;;1.78;99.95
60715;BME280;46564;53.096;8.246;2022-12-07T01:19:47;101204.06;;;1.68;99.77
60715;BME280;46564;53.096;8.246;2022-12-07T01:24:48;101208.13;;;1.65;99.55
60715;BME280;46564;53.096;8.246;2022-12-07T01:29:50;101206.38;;;1.64;99.58
60715;BME280;46564;53.096;8.246;2022-12-07T01:34:52;101203.50;;;1.59;99.44
60715;BME280;46564;53.096;8.246;2022-12-07T01:39:53;101205.97;;;1.57;99.73
60715;BME280;46564;53.096;8.246;2022-12-07T01:50:15;101219.47;;;1.67;99.68
60715;BME280;46564;53.096;8.246;2022-12-07T01:55:17;101236.91;;;1.71;99.73
60715;BME280;46564;53.096;8.246;2022-12-07T02:00:19;101214.59;;;1.86;99.89
60715;BME280;46564;53.096;8.246;2022-12-07T02:05:21;101198.53;;;1.92;99.60
60715;BME280;46564;53.096;8.246;2022-12-07T02:10:27;101194.63;;;1.84;99.82
60715;BME280;46564;53.096;8.246;2022-12-07T02:15:38;101177.69;;;1.74;99.58
60715;BME280;46564;53.096;8.246;2022-12-07T02:20:54;101178.78;;;1.77;99.87
60715;BME280;46564;53.096;8.246;2022-12-07T02:26:26;101186.88;;;1.69;99.57
60715;BME280;46564;53.096;8.246;2022-12-07T02:31:33;101172.44;;;1.72;99.70
60715;BME280;46564;53.096;8.246;2022-12-07T02:36:42;101168.81;;;1.69;99.58
60715;BME280;46564;53.096;8.246;2022-12-07T02:41:55;101164.44;;;1.68;99.77
60715;BME280;46564;53.096;8.246;2022-12-07T02:47:05;101166.66;;;1.62;99.86
60715;BME280;46564;53.096;8.246;2022-12-07T02:52:08;101167.09;;;1.54;99.58
60715;BME280;46564;53.096;8.246;2022-12-07T02:57:39;101159.88;;;1.49;99.80
60715;BME280;46564;53.096;8.246;2022-12-07T03:03:00;101158.25;;;1.36;99.75
60715;BME280;46564;53.096;8.246;2022-12-07T03:13:19;101163.47;;;1.22;99.73
60715;BME280;46564;53.096;8.246;2022-12-07T03:18:25;101159.50;;;1.28;99.49
60715;BME280;46564;53.096;8.246;2022-12-07T03:23:32;101150.59;;;1.37;99.61
60715;BME280;46564;53.096;8.246;2022-12-07T03:28:37;101141.34;;;1.41;99.66
60715;BME280;46564;53.096;8.246;2022-12-07T03:33:56;101147.31;;;1.40;99.55
60715;BME280;46564;53.096;8.246;2022-12-07T03:39:08;101148.19;;;1.40;99.65
60715;BME280;46564;53.096;8.246;2022-12-07T03:44:15;101153.63;;;1.45;99.59
60715;BME280;46564;53.096;8.246;2022-12-07T03:49:27;101150.09;;;1.43;99.30
60715;BME280;46564;53.096;8.246;2022-12-07T03:54:46;101148.56;;;1.47;99.62
60715;BME280;46564;53.096;8.246;2022-12-07T03:59:48;101150.34;;;1.48;99.41
60715;BME280;46564;53.096;8.246;2022-12-07T04:04:52;101150.03;;;1.56;99.56
60715;BME280;46564;53.096;8.246;2022-12-07T04:09:53;101150.81;;;1.55;99.31
60715;BME280;46564;53.096;8.246;2022-12-07T04:14:56;101168.34;;;1.46;99.53
60715;BME280;46564;53.096;8.246;2022-12-07T04:19:57;101159.59;;;1.44;98.96
60715;BME280;46564;53.096;8.246;2022-12-07T04:24:59;101157.66;;;1.40;99.50
60715;BME280;46564;53.096;8.246;2022-12-07T04:30:00;101156.38;;;1.33;99.21
60715;BME280;46564;53.096;8.246;2022-12-07T04:35:03;101157.53;;;1.23;99.30
60715;BME280;46564;53.096;8.246;2022-12-07T04:40:07;101164.66;;;1.28;98.94
60715;BME280;46564;53.096;8.246;2022-12-07T04:45:10;101159.84;;;1.34;99.22
60715;BME280;46564;53.096;8.246;2022-12-07T04:50:11;101152.56;;;1.41;99.20
60715;BME280;46564;53.096;8.246;2022-12-07T04:55:13;101152.66;;;1.43;98.78
60715;BME280;46564;53.096;8.246;2022-12-07T05:00:14;101142.72;;;1.49;99.10
60715;BME280;46564;53.096;8.246;2022-12-07T05:05:16;101132.38;;;1.49;98.66
60715;BME280;46564;53.096;8.246;2022-12-07T05:10:17;101139.50;;;1.53;98.77
60715;BME280;46564;53.096;8.246;2022-12-07T05:15:18;101137.13;;;1.56;99.16
60715;BME280;46564;53.096;8.246;2022-12-07T05:20:20;101134.16;;;1.50;99.17
60715;BME280;46564;53.096;8.246;2022-12-07T05:25:22;101140.63;;;1.44;98.94
60715;BME280;46564;53.096;8.246;2022-12-07T05:30:24;101133.69;;;1.42;98.74
60715;BME280;46564;53.096;8.246;2022-12-07T05:35:26;101153.44;;;1.42;99.22
60715;BME280;46564;53.096;8.246;2022-12-07T05:40:28;101152.41;;;1.38;98.95
60715;BME280;46564;53.096;8.246;2022-12-07T05:45:29;101147.69;;;1.46;98.84
60715;BME280;46564;53.096;8.246;2022-12-07T05:50:31;101133.34;;;1.51;98.88
60715;BME280;46564;53.096;8.246;2022-12-07T05:55:35;101132.81;;;1.57;99.22
60715;BME280;46564;53.096;8.246;2022-12-07T06:00:37;101137.38;;;1.61;99.08
60715;BME280;46564;53.096;8.246;2022-12-07T06:05:38;101138.88;;;1.57;98.79
60715;BME280;46564;53.096;8.246;2022-12-07T06:10:40;101138.88;;;1.57;99.24
60715;BME280;46564;53.096;8.246;2022-12-07T06:15:42;101137.66;;;1.66;99.15
60715;BME280;46564;53.096;8.246;2022-12-07T06:20:44;101142.03;;;1.67;99.15
60715;BME280;46564;53.096;8.246;2022-12-07T06:25:46;101135.94;;;1.66;99.20
60715;BME280;46564;53.096;8.246;2022-12-07T06:30:47;101136.56;;;1.77;99.16
60715;BME280;46564;53.096;8.246;2022-12-07T06:35:49;101135.16;;;1.82;99.18
60715;BME280;46564;53.096;8.246;2022-12-07T06:40:50;101142.63;;;1.92;99.00
60715;BME280;46564;53.096;8.246;2022-12-07T06:45:52;101148.69;;;1.93;99.01
60715;BME280;46564;53.096;8.246;2022-12-07T06:50:53;101158.50;;;1.99;99.04
60715;BME280;46564;53.096;8.246;2022-12-07T06:55:55;101174.88;;;1.99;99.02
60715;BME280;46564;53.096;8.246;2022-12-07T07:01:01;101178.53;;;2.03;99.25
60715;BME280;46564;53.096;8.246;2022-12-07T07:06:03;101169.88;;;2.02;98.97
60715;BME280;46564;53.096;8.246;2022-12-07T07:11:06;101177.19;;;1.94;99.00
60715;BME280;46564;53.096;8.246;2022-12-07T07:16:08;101169.09;;;1.88;99.09
60715;BME280;46564;53.096;8.246;2022-12-07T07:21:09;101171.91;;;1.78;98.64
60715;BME280;46564;53.096;8.246;2022-12-07T07:26:11;101175.41;;;1.64;98.60
60715;BME280;46564;53.096;8.246;2022-12-07T07:31:13;101173.50;;;1.46;98.40
60715;BME280;46564;53.096;8.246;2022-12-07T07:36:14;101172.84;;;1.35;98.39
60715;BME280;46564;53.096;8.246;2022-12-07T07:41:16;101166.41;;;1.29;98.50
60715;BME280;46564;53.096;8.246;2022-12-07T07:46:17;101169.31;;;1.20;98.26
60715;BME280;46564;53.096;8.246;2022-12-07T07:51:19;101170.94;;;1.18;98.56
60715;BME280;46564;53.096;8.246;2022-12-07T07:56:20;101167.09;;;1.11;98.39
60715;BME280;46564;53.096;8.246;2022-12-07T08:01:22;101169.78;;;1.13;98.24
60715;BME280;46564;53.096;8.246;2022-12-07T08:06:23;101186.34;;;1.31;98.25
60715;BME280;46564;53.096;8.246;2022-12-07T08:11:32;101178.72;;;1.33;98.35
60715;BME280;46564;53.096;8.246;2022-12-07T08:16:33;101181.28;;;1.33;98.36
60715;BME280;46564;53.096;8.246;2022-12-07T08:21:45;101183.41;;;1.25;98.58
60715;BME280;46564;53.096;8.246;2022-12-07T08:26:59;101182.50;;;1.24;98.51
60715;BME280;46564;53.096;8.246;2022-12-07T08:32:01;101168.84;;;1.40;98.71
60715;BME280;46564;53.096;8.246;2022-12-07T08:37:14;101173.16;;;1.55;98.62
60715;BME280;46564;53.096;8.246;2022-12-07T08:42:53;101192.47;;;1.62;98.75
60715;BME280;46564;53.096;8.246;2022-12-07T08:48:30;101196.94;;;1.64;98.61
60715;BME280;46564;53.096;8.246;2022-12-07T08:54:05;101186.09;;;1.70;98.90
60715;BME280;46564;53.096;8.246;2022-12-07T08:59:35;101182.25;;;1.78;98.74
60715;BME280;46564;53.096;8.246;2022-12-07T09:04:46;101183.22;;;1.80;98.61
60715;BME280;46564;53.096;8.246;2022-12-07T09:10:15;101189.56;;;1.85;98.58
60715;BME280;46564;53.096;8.246;2022-12-07T09:15:34;101195.34;;;1.96;98.76
60715;BME280;46564;53.096;8.246;2022-12-07T09:20:57;101188.97;;;2.04;98.81
60715;BME280;46564;53.096;8.246;2022-12-07T09:26:03;77618.06;;;2.10;98.65
60715;BME280;46564;53.096;8.246;2022-12-07T09:31:14;101181.47;;;2.24;98.57
60715;BME280;46564;53.096;8.246;2022-12-07T09:36:27;101178.78;;;2.37;98.60
60715;BME280;46564;53.096;8.246;2022-12-07T09:41:41;101190.22;;;2.57;98.62
60715;BME280;46564;53.096;8.246;2022-12-07T09:46:56;101191.09;;;2.89;98.46
60715;BME280;46564;53.096;8.246;2022-12-07T09:57:43;101169.69;;;3.58;98.05
60715;BME280;46564;53.096;8.246;2022-12-07T10:03:02;101176.06;;;3.64;97.69
60715;BME280;46564;53.096;8.246;2022-12-07T10:08:10;101175.69;;;3.40;97.31
60715;BME280;46564;53.096;8.246;2022-12-07T10:13:35;101179.44;;;3.63;97.01
60715;BME280;46564;53.096;8.246;2022-12-07T10:18:41;101162.09;;;3.95;96.78
60715;BME280;46564;53.096;8.246;2022-12-07T10:24:04;101150.69;;;4.10;96.54
60715;BME280;46564;53.096;8.246;2022-12-07T10:29:19;101152.09;;;4.21;95.90
60715;BME280;46564;53.096;8.246;2022-12-07T10:34:25;101158.94;;;4.55;95.59
60715;BME280;46564;53.096;8.246;2022-12-07T10:39:28;101159.66;;;4.70;94.99
60715;BME280;46564;53.096;8.246;2022-12-07T10:44:32;101157.78;;;4.68;94.21
60715;BME280;46564;53.096;8.246;2022-12-07T10:55:21;101145.78;;;4.52;92.92
60715;BME280;46564;53.096;8.246;2022-12-07T11:00:39;101137.56;;;4.42;92.56
60715;BME280;46564;53.096;8.246;2022-12-07T11:11:18;101128.28;;;4.28;92.03
60715;BME280;46564;53.096;8.246;2022-12-07T11:21:59;101124.31;;;4.54;91.65
60715;BME280;46564;53.096;8.246;2022-12-07T11:27:14;101118.00;;;4.67;91.41
60715;BME280;46564;53.096;8.246;2022-12-07T11:32:31;101108.16;;;4.60;91.27
60715;BME280;46564;53.096;8.246;2022-12-07T11:37:38;101093.59;;;4.64;91.17
60715;BME280;46564;53.096;8.246;2022-12-07T11:42:46;101098.19;;;4.69;90.83
60715;BME280;46564;53.096;8.246;2022-12-07T11:48:00;101096.91;;;4.59;90.75
60715;BME280;46564;53.096;8.246;2022-12-07T12:03:35;101079.69;;;4.62;90.36
60715;BME280;46564;53.096;8.246;2022-12-07T12:08:44;101065.00;;;4.62;90.19
60715;BME280;46564;53.096;8.246;2022-12-07T12:20:01;101055.22;;;4.74;89.82
60715;BME280;46564;53.096;8.246;2022-12-07T12:25:07;101049.84;;;4.71;89.76
60715;BME280;46564;53.096;8.246;2022-12-07T12:30:33;101043.03;;;4.73;89.52
60715;BME280;46564;53.096;8.246;2022-12-07T12:35:36;101033.53;;;4.74;89.23
60715;BME280;46564;53.096;8.246;2022-12-07T12:40:39;101029.94;;;4.51;88.93
60715;BME280;46564;53.096;8.246;2022-12-07T12:45:47;101035.97;;;4.32;88.84
60715;BME280;46564;53.096;8.246;2022-12-07T12:50:49;101031.75;;;4.16;89.02
60715;BME280;46564;53.096;8.246;2022-12-07T12:56:40;101030.59;;;4.09;88.89
60715;BME280;46564;53.096;8.246;2022-12-07T13:01:40;101024.53;;;4.09;89.06
60715;BME280;46564;53.096;8.246;2022-12-07T13:06:43;101022.97;;;4.12;88.87
60715;BME280;46564;53.096;8.246;2022-12-07T13:11:45;101033.09;;;4.25;89.10
60715;BME280;46564;53.096;8.246;2022-12-07T13:16:47;101038.09;;;4.40;88.98
60715;BME280;46564;53.096;8.246;2022-12-07T13:21:49;101024.47;;;4.45;88.89
60715;BME280;46564;53.096;8.246;2022-12-07T13:26:55;101030.69;;;4.68;88.76
60715;BME280;46564;53.096;8.246;2022-12-07T13:31:57;101025.16;;;4.80;88.76
60715;BME280;46564;53.096;8.246;2022-12-07T13:37:14;101028.28;;;4.72;88.62
60715;BME280;46564;53.096;8.246;2022-12-07T13:42:30;101024.28;;;4.59;88.49
60715;BME280;46564;53.096;8.246;2022-12-07T13:52:43;101021.97;;;4.28;88.20
60715;BME280;46564;53.096;8.246;2022-12-07T13:57:47;101021.69;;;4.22;88.19
60715;BME280;46564;53.096;8.246;2022-12-07T14:03:30;101020.56;;;4.17;88.37
60715;BME280;46564;53.096;8.246;2022-12-07T14:08:23;101005.69;;;4.13;88.48
60715;BME280;46564;53.096;8.246;2022-12-07T14:13:34;101009.13;;;4.12;88.74
60715;BME280;46564;53.096;8.246;2022-12-07T14:18:39;101027.25;;;4.12;88.75
60715;BME280;46564;53.096;8.246;2022-12-07T14:23:41;101053.13;;;3.92;88.89
60715;BME280;46564;53.096;8.246;2022-12-07T14:28:43;101032.13;;;3.33;88.61
60715;BME280;46564;53.096;8.246;2022-12-07T14:33:45;101028.84;;;2.87;88.67
60715;BME280;46564;53.096;8.246;2022-12-07T14:38:46;101008.28;;;2.55;89.10
60715;BME280;46564;53.096;8.246;2022-12-07T14:43:48;101012.03;;;2.29;89.50
60715;BME280;46564;53.096;8.246;2022-12-07T14:49:10;101011.50;;;2.03;89.70
60715;BME280;46564;53.096;8.246;2022-12-07T14:54:32;101011.50;;;2.03;89.70
60715;BME280;46564;53.096;8.246;2022-12-07T14:59:34;101000.31;;;2.03;90.74
60715;BME280;46564;53.096;8.246;2022-12-07T15:04:41;100987.38;;;2.03;90.98
60715;BME280;46564;53.096;8.246;2022-12-07T15:09:42;100987.56;;;2.06;91.39
60715;BME280;46564;53.096;8.246;2022-12-07T15:14:44;100988.34;;;2.05;91.59
60715;BME280;46564;53.096;8.246;2022-12-07T15:19:45;100993.69;;;2.08;92.23
60715;BME280;46564;53.096;8.246;2022-12-07T15:24:47;100990.31;;;2.09;92.09
60715;BME280;46564;53.096;8.246;2022-12-07T15:29:48;101017.19;;;2.12;92.44
60715;BME280;46564;53.096;8.246;2022-12-07T15:34:50;101010.13;;;2.10;92.78
60715;BME280;46564;53.096;8.246;2022-12-07T15:39:51;100998.50;;;2.02;93.37
60715;BME280;46564;53.096;8.246;2022-12-07T15:44:53;100988.72;;;1.96;93.11
60715;BME280;46564;53.096;8.246;2022-12-07T15:50:11;100986.22;;;1.98;93.44
60715;BME280;46564;53.096;8.246;2022-12-07T15:55:13;100985.13;;;2.09;93.63
60715;BME280;46564;53.096;8.246;2022-12-07T16:00:15;100979.97;;;2.09;93.97
60715;BME280;46564;53.096;8.246;2022-12-07T16:05:16;100974.72;;;2.07;93.96
60715;BME280;46564;53.096;8.246;2022-12-07T16:10:18;100972.53;;;1.99;94.22
60715;BME280;46564;53.096;8.246;2022-12-07T16:15:19;100976.84;;;2.00;94.16
60715;BME280;46564;53.096;8.246;2022-12-07T16:20:25;100974.09;;;1.97;94.26
60715;BME280;46564;53.096;8.246;2022-12-07T16:25:26;100972.03;;;1.89;93.90
60715;BME280;46564;53.096;8.246;2022-12-07T16:30:28;100982.19;;;1.86;94.32
60715;BME280;46564;53.096;8.246;2022-12-07T16:35:29;100977.03;;;1.86;94.32
60715;BME280;46564;53.096;8.246;2022-12-07T16:40:31;100966.84;;;1.89;94.37
60715;BME280;46564;53.096;8.246;2022-12-07T16:45:32;100968.59;;;1.90;94.47
60715;BME280;46564;53.096;8.246;2022-12-07T16:50:34;100975.56;;;1.91;94.34
60715;BME280;46564;53.096;8.246;2022-12-07T16:55:40;100969.78;;;1.96;95.00
60715;BME280;46564;53.096;8.246;2022-12-07T17:00:42;100951.03;;;2.00;95.12
60715;BME280;46564;53.096;8.246;2022-12-07T17:05:55;100953.63;;;2.00;95.23
60715;BME280;46564;53.096;8.246;2022-12-07T17:10:56;100936.34;;;1.99;95.19
60715;BME280;46564;53.096;8.246;2022-12-07T17:16:03;100933.69;;;1.97;95.12
60715;BME280;46564;53.096;8.246;2022-12-07T17:21:06;100931.66;;;1.91;95.57
60715;BME280;46564;53.096;8.246;2022-12-07T17:26:12;100927.50;;;1.79;95.64
60715;BME280;46564;53.096;8.246;2022-12-07T17:31:16;100916.06;;;1.73;95.34
60715;BME280;46564;53.096;8.246;2022-12-07T17:36:26;100919.19;;;1.68;95.66
60715;BME280;46564;53.096;8.246;2022-12-07T17:41:28;100918.22;;;1.66;95.43
60715;BME280;46564;53.096;8.246;2022-12-07T17:46:52;100917.44;;;1.67;95.70
60715;BME280;46564;53.096;8.246;2022-12-07T17:52:05;100906.47;;;1.56;95.63
60715;BME280;46564;53.096;8.246;2022-12-07T17:57:25;100897.34;;;1.46;95.82
60715;BME280;46564;53.096;8.246;2022-12-07T18:02:27;100893.63;;;1.41;95.50
60715;BME280;46564;53.096;8.246;2022-12-07T18:07:28;100902.88;;;1.37;95.60
60715;BME280;46564;53.096;8.246;2022-12-07T18:12:30;100908.59;;;1.32;95.14
60715;BME280;46564;53.096;8.246;2022-12-07T18:17:32;100896.78;;;1.20;95.49
60715;BME280;46564;53.096;8.246;2022-12-07T18:22:33;100902.03;;;1.22;95.33
60715;BME280;46564;53.096;8.246;2022-12-07T18:27:36;100887.72;;;1.12;95.16
60715;BME280;46564;53.096;8.246;2022-12-07T18:32:38;100884.78;;;1.06;95.34
60715;BME280;46564;53.096;8.246;2022-12-07T18:37:40;100886.22;;;1.01;95.37
60715;BME280;46564;53.096;8.246;2022-12-07T18:42:41;100878.41;;;0.99;95.57
60715;BME280;46564;53.096;8.246;2022-12-07T18:47:43;100858.66;;;1.00;95.32
60715;BME280;46564;53.096;8.246;2022-12-07T18:52:44;100862.03;;;0.99;95.89
60715;BME280;46564;53.096;8.246;2022-12-07T18:57:46;100856.34;;;0.90;95.66
60715;BME280;46564;53.096;8.246;2022-12-07T19:02:51;100849.41;;;0.88;95.54
60715;BME280;46564;53.096;8.246;2022-12-07T19:07:53;100856.97;;;0.85;95.79
60715;BME280;46564;53.096;8.246;2022-12-07T19:12:58;100848.19;;;0.82;95.97
60715;BME280;46564;53.096;8.246;2022-12-07T19:22:35;100835.91;;;0.78;95.92
60715;BME280;46564;53.096;8.246;2022-12-07T19:27:36;100840.97;;;0.76;96.06
60715;BME280;46564;53.096;8.246;2022-12-07T19:32:38;100832.53;;;0.79;96.24
60715;BME280;46564;53.096;8.246;2022-12-07T19:37:39;100831.84;;;0.81;96.22
60715;BME280;46564;53.096;8.246;2022-12-07T19:42:41;100837.16;;;0.84;96.54
60715;BME280;46564;53.096;8.246;2022-12-07T19:47:42;100821.88;;;0.87;96.74
60715;BME280;46564;53.096;8.246;2022-12-07T19:52:44;100818.66;;;0.92;96.85
60715;BME280;46564;53.096;8.246;2022-12-07T19:57:45;100799.63;;;0.90;96.61
60715;BME280;46564;53.096;8.246;2022-12-07T20:02:50;100797.31;;;0.94;96.79
60715;BME280;46564;53.096;8.246;2022-12-07T20:07:52;100793.84;;;0.94;96.96
60715;BME280;46564;53.096;8.246;2022-12-07T20:12:53;100783.69;;;0.97;97.11
60715;BME280;46564;53.096;8.246;2022-12-07T20:18:13;100783.69;;;0.97;97.21
60715;BME280;46564;53.096;8.246;2022-12-07T20:23:15;100779.59;;;1.00;97.23
60715;BME280;46564;53.096;8.246;2022-12-07T20:28:16;100777.25;;;1.05;97.32
60715;BME280;46564;53.096;8.246;2022-12-07T20:33:19;100780.00;;;1.08;97.19
60715;BME280;46564;53.096;8.246;2022-12-07T20:38:20;100779.31;;;1.11;97.72
60715;BME280;46564;53.096;8.246;2022-12-07T20:43:22;100763.81;;;1.11;97.49
60715;BME280;46564;53.096;8.246;2022-12-07T20:48:23;100764.75;;;1.11;97.83
60715;BME280;46564;53.096;8.246;2022-12-07T20:53:25;100763.13;;;1.13;97.66
60715;BME280;46564;53.096;8.246;2022-12-07T20:58:26;100758.13;;;1.16;97.67
60715;BME280;46564;53.096;8.246;2022-12-07T21:03:29;100759.91;;;1.17;97.75
60715;BME280;46564;53.096;8.246;2022-12-07T21:08:30;100756.59;;;1.20;97.88
60715;BME280;46564;53.096;8.246;2022-12-07T21:13:32;100747.81;;;1.16;97.64
60715;BME280;46564;53.096;8.246;2022-12-07T21:18:33;100737.50;;;1.16;97.98
60715;BME280;46564;53.096;8.246;2022-12-07T21:23:36;100726.53;;;1.20;97.97
60715;BME280;46564;53.096;8.246;2022-12-07T21:28:38;100733.44;;;1.21;98.24
60715;BME280;46564;53.096;8.246;2022-12-07T21:33:40;100720.56;;;1.21;97.91
60715;BME280;46564;53.096;8.246;2022-12-07T21:38:42;100719.50;;;1.18;98.01
60715;BME280;46564;53.096;8.246;2022-12-07T21:43:44;100711.53;;;1.13;97.96
60715;BME280;46564;53.096;8.246;2022-12-07T21:48:57;100708.88;;;1.12;98.19
60715;BME280;46564;53.096;8.246;2022-12-07T21:54:01;100696.69;;;1.09;98.43
60715;BME280;46564;53.096;8.246;2022-12-07T21:59:09;100687.91;;;1.05;98.06
60715;BME280;46564;53.096;8.246;2022-12-07T22:04:21;100687.66;;;1.01;97.84
60715;BME280;46564;53.096;8.246;2022-12-07T22:09:23;100688.31;;;0.97;98.01
60715;BME280;46564;53.096;8.246;2022-12-07T22:14:25;100687.50;;;0.98;98.06
60715;BME280;46564;53.096;8.246;2022-12-07T22:19:45;100682.97;;;0.94;97.96
60715;BME280;46564;53.096;8.246;2022-12-07T22:24:46;100682.91;;;0.92;98.12
60715;BME280;46564;53.096;8.246;2022-12-07T22:29:48;100674.38;;;0.93;98.01
60715;BME280;46564;53.096;8.246;2022-12-07T22:34:50;100676.19;;;0.96;98.33
60715;BME280;46564;53.096;8.246;2022-12-07T22:39:51;100672.19;;;1.01;98.28
60715;BME280;46564;53.096;8.246;2022-12-07T22:44:53;100663.56;;;1.00;98.36
60715;BME280;46564;53.096;8.246;2022-12-07T22:49:54;100659.94;;;0.97;98.45
60715;BME280;46564;53.096;8.246;2022-12-07T22:54:57;100649.72;;;0.98;98.23
60715;BME280;46564;53.096;8.246;2022-12-07T22:59:58;100653.91;;;0.96;98.30
60715;BME280;46564;53.096;8.246;2022-12-07T23:05:00;100636.56;;;0.94;98.04
60715;BME280;46564;53.096;8.246;2022-12-07T23:10:03;100628.97;;;0.80;98.46
60715;BME280;46564;53.096;8.246;2022-12-07T23:15:05;100623.66;;;0.77;98.36
60715;BME280;46564;53.096;8.246;2022-12-07T23:20:07;100622.78;;;0.77;98.68
60715;BME280;46564;53.096;8.246;2022-12-07T23:25:09;100619.06;;;0.72;98.41
60715;BME280;46564;53.096;8.246;2022-12-07T23:30:11;100609.47;;;0.69;98.16
60715;BME280;46564;53.096;8.246;2022-12-07T23:35:12;100589.34;;;0.62;98.58
60715;BME280;46564;53.096;8.246;2022-12-07T23:40:14;100594.50;;;0.62;98.54
60715;BME280;46564;53.096;8.246;2022-12-07T23:45:15;100582.00;;;0.53;98.36
60715;BME280;46564;53.096;8.246;2022-12-07T23:50:17;100578.25;;;0.48;98.63
60715;BME280;46564;53.096;8.246;2022-12-07T23:55:20;100567.88;;;0.46;98.52
